Clarkia, Idaho
Current Conditions -  °F | °C
As of 3:53 AM on Monday 20 Oct 2014 (Local Time) from KMLP Reporting Station
Clear Clear  
Wind Chill: 45°   Ceiling: Unl
Heat Index: 48°   Visibility: 10mi
Dew Point: 30°   Wind: 7mph
Humidity: 50%   Direction: NA
Pressure: 29.91"   Gusts: NA
Location:  47.01°N, 116.25°W
Report Text: KMLP 201053Z AUTO VRB06KT 10SM CLR 09/M01 A2991 RMK AO2 SLP050 T00891011
Loading
Personal Weather Stations






























Interactive Weather Map
Tropical Storm Tracking
New forecast layout! Learn more

10-Day Weather Forecast

Advertisements
Track Severe Weather on mobile